Time;durP1;ratioP1;P1;durP2;ratioP2;P2;SDS_P1;SDS_P2;PMS_P1;PMS_P2;Temp;Humidity;BMP_temperature;BMP_pressure;BME280_temperature;BME280_humidity;BME280_pressure;Samples;Min_cycle;Max_cycle;Signal;HPM_P1;HPM_P2
2022/12/12 00:01:48;;;;;;;;;;;;;;;;;;5056370;28;19932;-60
2022/12/12 00:04:13;;;;;;;;;;;;;;;;;;5051826;28;20013;-60
2022/12/12 00:06:39;;;;;;;;;;;;;;;;;;5053153;28;20045;-60
2022/12/12 00:09:04;;;;;;;;;;;;;;;;;;5057209;28;20379;-61
2022/12/12 00:11:29;;;;;;;;;;;;;;;;;;5055283;28;19976;-61
2022/12/12 00:13:55;;;;;;;;;;;;;;;;;;5057028;28;19924;-60
2022/12/12 00:16:21;;;;;;;;;;;;;;;;;;5059432;28;19928;-61
2022/12/12 00:18:47;;;;;;;;;;;;;;;;;;5061119;28;19939;-61
2022/12/12 00:21:13;;;;;;;;;;;;;;;;;;5063504;28;20018;-61
2022/12/12 00:23:38;;;;;;;;;;;;;;;;;;5074490;28;19920;-63
2022/12/12 00:26:06;;;;;;;;;;;;;;;;;;5060873;28;19945;-64
2022/12/12 00:28:31;;;;;;;;;;;;;;;;;;5067279;28;20347;-64
2022/12/12 00:30:56;;;;;;;;;;;;;;;;;;5074071;28;20095;-61
2022/12/12 00:33:21;;;;;;;;;;;;;;;;;;5075765;28;19981;-60
2022/12/12 00:35:51;;;;;;;;;;;;;;;;;;5076687;28;19924;-65
2022/12/12 00:38:16;;;;;;;;;;;;;;;;;;5072412;28;20022;-65
2022/12/12 00:40:42;;;;;;;;;;;;;;;;;;5077152;28;19936;-51
2022/12/12 00:43:07;;;;;;;;;;;;;;;;;;5074435;28;19932;-52
2022/12/12 00:45:32;;;;;;;;;;;;;;;;;;5069628;28;20023;-50
2022/12/12 00:47:58;;;;;;;;;;;;;;;;;;5071349;28;20421;-71
2022/12/12 00:50:23;;;;;;;;;;;;;;;;;;5075122;28;19924;-70
2022/12/12 00:52:48;;;;;;;;;;;;;;;;;;5078893;28;19932;-65
2022/12/12 00:55:13;;;;;;;;;;;;;;;;;;5076871;28;20366;-65
2022/12/12 00:57:39;;;;;;;;;;;;;;;;;;5075881;28;19931;-64
2022/12/12 01:00:07;;;;;;;;;;;;;;;;;;5076608;28;19935;-64
2022/12/12 01:02:32;;;;;;;;;;;;;;;;;;5076516;28;19989;-65
2022/12/12 01:04:57;;;;;;;;;;;;;;;;;;5074412;28;20402;-64
2022/12/12 01:07:23;;;;;;;;;;;;;;;;;;5078079;28;19964;-65
2022/12/12 01:09:48;;;;;;;;;;;;;;;;;;5081148;28;19931;-65
2022/12/12 01:12:13;;;;;;;;;;;;;;;;;;5079048;28;20396;-65
2022/12/12 01:14:39;;;;;;;;;;;;;;;;;;5080711;28;19973;-65
2022/12/12 01:17:04;;;;;;;;;;;;;;;;;;5076125;28;20195;-64
2022/12/12 01:19:29;;;;;;;;;;;;;;;;;;5080252;28;20002;-65
2022/12/12 01:21:54;;;;;;;;;;;;;;;;;;5080484;28;20002;-65
2022/12/12 01:24:20;;;;;;;;;;;;;;;;;;5081430;28;19973;-65
2022/12/12 01:26:45;;;;;;;;;;;;;;;;;;5080837;28;20001;-59
2022/12/12 01:29:10;;;;;;;;;;;;;;;;;;5071625;28;19941;-60
2022/12/12 01:31:36;;;;;;;;;;;;;;;;;;5081857;28;19932;-61
2022/12/12 01:34:01;;;;;;;;;;;;;;;;;;5075130;28;19928;-61
2022/12/12 01:36:26;;;;;;;;;;;;;;;;;;5077124;28;20019;-60
2022/12/12 01:38:52;;;;;;;;;;;;;;;;;;5075528;28;20036;-60
2022/12/12 01:41:19;;;;;;;;;;;;;;;;;;5086995;28;20009;-55
2022/12/12 01:43:44;;;;;;;;;;;;;;;;;;5086624;28;20378;-55
2022/12/12 01:46:10;;;;;;;;;;;;;;;;;;5086409;28;19931;-54
2022/12/12 01:48:35;;;;;;;;;;;;;;;;;;5089299;28;19928;-50
2022/12/12 01:51:03;;;;;;;;;;;;;;;;;;5086734;28;19934;-64
2022/12/12 01:53:30;;;;;;;;;;;;;;;;;;5086854;28;19998;-65
2022/12/12 01:55:56;;;;;;;;;;;;;;;;;;5083773;28;20361;-60
2022/12/12 01:58:21;;;;;;;;;;;;;;;;;;5086237;28;19932;-60
2022/12/12 02:00:47;;;;;;;;;;;;;;;;;;5086983;28;19987;-61
2022/12/12 02:03:12;;;;;;;;;;;;;;;;;;5084999;28;19928;-61
2022/12/12 02:05:40;;;;;;;;;;;;;;;;;;5085850;28;19924;-61
2022/12/12 02:08:06;;;;;;;;;;;;;;;;;;5086275;28;20293;-61
2022/12/12 02:10:32;;;;;;;;;;;;;;;;;;5084204;28;19928;-61
2022/12/12 02:13:02;;;;;;;;;;;;;;;;;;5084960;28;19939;-62
2022/12/12 02:15:30;;;;;;;;;;;;;;;;;;5083830;28;19932;-60
2022/12/12 02:17:55;;;;;;;;;;;;;;;;;;5089462;28;20291;-60
2022/12/12 02:20:27;;;;;;;;;;;;;;;;;;5085528;28;19929;-60
2022/12/12 02:23:01;;;;;;;;;;;;;;;;;;5079132;28;20314;-60
2022/12/12 02:25:56;;;;;;;;;;;;;;;;;;5083861;28;19932;-60
2022/12/12 02:28:31;;;;;;;;;;;;;;;;;;5086034;28;19928;-62
2022/12/12 02:31:14;;;;;;;;;;;;;;;;;;5081819;28;20309;-60
2022/12/12 02:33:54;;;;;;;;;;;;;;;;;;5074190;28;20302;-61
2022/12/12 02:36:34;;;;;;;;;;;;;;;;;;5072896;28;19932;-60
2022/12/12 02:39:11;;;;;;;;;;;;;;;;;;5077370;28;20284;-60
2022/12/12 02:41:40;;;;;;;;;;;;;;;;;;5079586;28;19928;-61
2022/12/12 02:44:25;;;;;;;;;;;;;;;;;;5080103;28;19932;-60
2022/12/12 02:47:10;;;;;;;;;;;;;;;;;;5077392;28;19947;-61
2022/12/12 02:49:39;;;;;;;;;;;;;;;;;;5075434;28;19959;-61
2022/12/12 02:52:05;;;;;;;;;;;;;;;;;;5077287;28;19928;-60
2022/12/12 02:54:31;;;;;;;;;;;;;;;;;;5076010;28;19930;-60
2022/12/12 02:56:57;;;;;;;;;;;;;;;;;;5076160;28;19928;-61
2022/12/12 02:59:31;;;;;;;;;;;;;;;;;;5078212;28;19920;-60
2022/12/12 03:02:06;;;;;;;;;;;;;;;;;;5077633;28;20365;-61
2022/12/12 03:07:47;;;;;;;;;;;;;;;;;;5078656;28;20618;-61
2022/12/12 03:10:31;;;;;;;;;;;;;;;;;;5076798;28;19985;-61
2022/12/12 03:12:59;;;;;;;;;;;;;;;;;;5079687;28;20866;-63
2022/12/12 03:15:27;;;;;;;;;;;;;;;;;;5075377;28;21197;-61
2022/12/12 03:18:18;;;;;;;;;;;;;;;;;;5075317;28;20309;-61
2022/12/12 03:20:43;;;;;;;;;;;;;;;;;;5080877;28;19943;-61
2022/12/12 03:23:13;;;;;;;;;;;;;;;;;;5075762;28;19928;-61
2022/12/12 03:25:45;;;;;;;;;;;;;;;;;;5071848;28;19924;-60
2022/12/12 03:28:13;;;;;;;;;;;;;;;;;;5079287;28;20023;-60
2022/12/12 03:30:41;;;;;;;;;;;;;;;;;;5076731;28;20047;-61
2022/12/12 03:33:27;;;;;;;;;;;;;;;;;;5075159;28;19932;-60
2022/12/12 03:35:55;;;;;;;;;;;;;;;;;;5073001;28;19920;-61
2022/12/12 03:38:26;;;;;;;;;;;;;;;;;;5078441;28;19974;-60
2022/12/12 03:40:53;;;;;;;;;;;;;;;;;;5074787;28;19932;-61
2022/12/12 03:43:20;;;;;;;;;;;;;;;;;;5071061;28;20397;-62
2022/12/12 03:45:49;;;;;;;;;;;;;;;;;;5078272;28;19964;-71
2022/12/12 03:48:20;;;;;;;;;;;;;;;;;;5070976;28;19929;-63
2022/12/12 03:50:51;;;;;;;;;;;;;;;;;;5078778;28;19970;-62
2022/12/12 03:53:21;;;;;;;;;;;;;;;;;;5075161;28;20521;-61
2022/12/12 03:55:56;;;;;;;;;;;;;;;;;;5077035;28;20657;-61
2022/12/12 03:58:40;;;;;;;;;;;;;;;;;;5073472;28;20002;-61
2022/12/12 04:01:08;;;;;;;;;;;;;;;;;;5082200;28;19924;-60
2022/12/12 04:03:51;;;;;;;;;;;;;;;;;;5074716;28;20051;-61
2022/12/12 04:06:25;;;;;;;;;;;;;;;;;;5076440;28;19985;-61
2022/12/12 04:14:40;;;;;;;;;;;;;;;;;;5077716;28;19973;-61
2022/12/12 04:17:07;;;;;;;;;;;;;;;;;;5079098;28;19924;-61
2022/12/12 04:25:31;;;;;;;;;;;;;;;;;;5071537;28;19989;-60
2022/12/12 04:27:59;;;;;;;;;;;;;;;;;;5074548;28;19932;-60
2022/12/12 04:30:28;;;;;;;;;;;;;;;;;;5075568;28;19928;-60
2022/12/12 04:32:53;;;;;;;;;;;;;;;;;;5072559;28;19966;-61
2022/12/12 04:35:21;;;;;;;;;;;;;;;;;;5078459;28;19921;-59
2022/12/12 04:37:49;;;;;;;;;;;;;;;;;;5079442;28;19932;-61
2022/12/12 04:40:18;;;;;;;;;;;;;;;;;;5080305;28;20506;-61
2022/12/12 04:42:54;;;;;;;;;;;;;;;;;;5084825;28;19973;-61
2022/12/12 04:45:22;;;;;;;;;;;;;;;;;;5077912;28;19947;-61
2022/12/12 04:47:49;;;;;;;;;;;;;;;;;;5082488;28;19963;-60
2022/12/12 04:50:14;;;;;;;;;;;;;;;;;;5075885;28;19928;-61
2022/12/12 04:52:41;;;;;;;;;;;;;;;;;;5078299;28;19932;-60
2022/12/12 04:55:13;;;;;;;;;;;;;;;;;;5077403;28;19947;-61
2022/12/12 04:57:41;;;;;;;;;;;;;;;;;;5068635;28;19940;-60
2022/12/12 05:00:07;;;;;;;;;;;;;;;;;;5056787;28;20429;-61
2022/12/12 05:02:38;;;;;;;;;;;;;;;;;;5079126;28;19939;-60
2022/12/12 05:05:22;;;;;;;;;;;;;;;;;;5075754;28;19940;-61
2022/12/12 05:07:55;;;;;;;;;;;;;;;;;;5077315;28;19924;-60
2022/12/12 05:10:21;;;;;;;;;;;;;;;;;;5076173;28;20627;-56
2022/12/12 05:12:50;;;;;;;;;;;;;;;;;;5076346;28;19947;-57
2022/12/12 05:15:17;;;;;;;;;;;;;;;;;;5071925;28;20388;-55
2022/12/12 05:17:47;;;;;;;;;;;;;;;;;;5059308;28;19935;-59
2022/12/12 05:20:13;;;;;;;;;;;;;;;;;;5076012;28;19970;-57
2022/12/12 05:22:39;;;;;;;;;;;;;;;;;;5079643;28;19963;-57
2022/12/12 05:25:04;;;;;;;;;;;;;;;;;;5076622;28;20354;-59
2022/12/12 05:27:30;;;;;;;;;;;;;;;;;;5085892;28;19993;-55
2022/12/12 05:29:55;;;;;;;;;;;;;;;;;;5080198;28;20382;-56
2022/12/12 05:32:20;;;;;;;;;;;;;;;;;;5078916;28;20375;-58
2022/12/12 05:34:46;;;;;;;;;;;;;;;;;;5082168;28;19939;-57
2022/12/12 05:37:11;;;;;;;;;;;;;;;;;;5081217;28;19931;-58
2022/12/12 05:39:36;;;;;;;;;;;;;;;;;;5078467;28;19932;-56
2022/12/12 05:42:02;;;;;;;;;;;;;;;;;;5080022;28;19928;-58
2022/12/12 05:44:27;;;;;;;;;;;;;;;;;;5083813;28;19935;-57
2022/12/12 05:46:52;;;;;;;;;;;;;;;;;;5085046;28;19989;-55
2022/12/12 05:49:17;;;;;;;;;;;;;;;;;;5088610;28;21733;-57
2022/12/12 05:51:43;;;;;;;;;;;;;;;;;;5084763;28;19929;-57
2022/12/12 05:54:08;;;;;;;;;;;;;;;;;;5085355;28;20020;-58
2022/12/12 05:56:34;;;;;;;;;;;;;;;;;;5085792;28;19970;-58
2022/12/12 05:58:59;;;;;;;;;;;;;;;;;;5087864;28;19964;-57
2022/12/12 06:01:24;;;;;;;;;;;;;;;;;;5087574;28;19924;-57
2022/12/12 06:03:50;;;;;;;;;;;;;;;;;;5088439;28;19924;-58
2022/12/12 06:06:15;;;;;;;;;;;;;;;;;;5088230;28;19932;-55
2022/12/12 06:08:40;;;;;;;;;;;;;;;;;;5083856;28;19931;-60
2022/12/12 06:11:06;;;;;;;;;;;;;;;;;;5084769;28;19935;-58
2022/12/12 06:13:32;;;;;;;;;;;;;;;;;;5084846;28;19928;-58
2022/12/12 06:15:57;;;;;;;;;;;;;;;;;;5074871;28;21303;-58
2022/12/12 06:18:22;;;;;;;;;;;;;;;;;;5072740;28;19923;-58
2022/12/12 06:20:48;;;;;;;;;;;;;;;;;;5081170;28;19924;-57
2022/12/12 06:23:13;;;;;;;;;;;;;;;;;;5078670;28;19935;-56
2022/12/12 06:25:38;;;;;;;;;;;;;;;;;;5077629;28;20013;-54
2022/12/12 06:28:03;;;;;;;;;;;;;;;;;;5077036;28;19934;-57
2022/12/12 06:30:29;;;;;;;;;;;;;;;;;;5074930;28;19950;-57
2022/12/12 06:32:54;;;;;;;;;;;;;;;;;;5078942;28;19939;-56
2022/12/12 06:35:19;;;;;;;;;;;;;;;;;;5077191;28;19931;-57
2022/12/12 06:37:47;;;;;;;;;;;;;;;;;;5072026;28;20305;-63
2022/12/12 06:40:12;;;;;;;;;;;;;;;;;;5077732;28;19928;-64
2022/12/12 06:42:37;;;;;;;;;;;;;;;;;;5075806;28;19930;-57
2022/12/12 06:45:03;;;;;;;;;;;;;;;;;;5075528;28;19931;-57
2022/12/12 06:47:28;;;;;;;;;;;;;;;;;;5075997;28;19928;-55
2022/12/12 06:49:53;;;;;;;;;;;;;;;;;;5080052;28;19981;-54
2022/12/12 06:52:19;;;;;;;;;;;;;;;;;;5078754;28;19936;-56
2022/12/12 06:54:45;;;;;;;;;;;;;;;;;;5076868;28;19960;-58
2022/12/12 06:57:10;;;;;;;;;;;;;;;;;;5074612;28;20008;-56
2022/12/12 06:59:35;;;;;;;;;;;;;;;;;;5081312;28;20394;-53
2022/12/12 07:02:01;;;;;;;;;;;;;;;;;;5075992;28;19974;-57
2022/12/12 07:04:26;;;;;;;;;;;;;;;;;;5075283;28;19932;-56
2022/12/12 07:06:52;;;;;;;;;;;;;;;;;;5075350;28;19928;-57
2022/12/12 07:09:18;;;;;;;;;;;;;;;;;;5076276;28;19975;-58
2022/12/12 07:11:43;;;;;;;;;;;;;;;;;;5083489;28;19930;-56
2022/12/12 07:14:08;;;;;;;;;;;;;;;;;;5072623;28;19928;-57
2022/12/12 07:16:34;;;;;;;;;;;;;;;;;;5074925;28;19935;-56
2022/12/12 07:18:59;;;;;;;;;;;;;;;;;;5071430;28;20404;-54
2022/12/12 07:21:24;;;;;;;;;;;;;;;;;;5080608;28;19932;-57
2022/12/12 07:23:50;;;;;;;;;;;;;;;;;;5073819;28;19926;-55
2022/12/12 07:26:16;;;;;;;;;;;;;;;;;;5074939;28;19924;-55
2022/12/12 07:28:42;;;;;;;;;;;;;;;;;;5076423;28;19928;-57
2022/12/12 07:31:08;;;;;;;;;;;;;;;;;;5075000;28;21014;-56
2022/12/12 07:33:33;;;;;;;;;;;;;;;;;;5077323;28;19971;-56
2022/12/12 07:35:59;;;;;;;;;;;;;;;;;;5074543;28;19989;-54
2022/12/12 07:38:24;;;;;;;;;;;;;;;;;;5076312;28;19927;-56
2022/12/12 07:40:49;;;;;;;;;;;;;;;;;;5076517;28;20347;-57
2022/12/12 07:43:15;;;;;;;;;;;;;;;;;;5079630;28;19947;-56
2022/12/12 07:45:43;;;;;;;;;;;;;;;;;;5084596;28;19932;-55
2022/12/12 07:48:08;;;;;;;;;;;;;;;;;;5082150;28;19951;-56
2022/12/12 07:50:33;;;;;;;;;;;;;;;;;;5085199;28;19974;-55
2022/12/12 07:52:58;;;;;;;;;;;;;;;;;;5083041;28;19924;-58
2022/12/12 07:55:24;;;;;;;;;;;;;;;;;;5081996;28;20450;-58
2022/12/12 07:57:49;;;;;;;;;;;;;;;;;;5080754;28;19943;-58
2022/12/12 08:00:15;;;;;;;;;;;;;;;;;;5084771;28;20022;-57
2022/12/12 08:02:40;;;;;;;;;;;;;;;;;;5083792;28;19924;-58
2022/12/12 08:05:06;;;;;;;;;;;;;;;;;;5083844;28;19935;-57
2022/12/12 08:07:31;;;;;;;;;;;;;;;;;;5082371;28;19935;-56
2022/12/12 08:09:56;;;;;;;;;;;;;;;;;;5084738;28;19932;-57
2022/12/12 08:12:22;;;;;;;;;;;;;;;;;;5086696;28;19928;-58
2022/12/12 08:14:47;;;;;;;;;;;;;;;;;;5073926;28;19959;-56
2022/12/12 08:17:13;;;;;;;;;;;;;;;;;;5073607;28;19927;-58
2022/12/12 08:19:38;;;;;;;;;;;;;;;;;;5084116;28;20095;-56
2022/12/12 08:22:03;;;;;;;;;;;;;;;;;;5078286;28;20034;-58
2022/12/12 08:24:29;;;;;;;;;;;;;;;;;;5076245;28;20301;-55
2022/12/12 08:26:54;;;;;;;;;;;;;;;;;;5079492;28;20110;-56
2022/12/12 08:29:20;;;;;;;;;;;;;;;;;;5079981;28;20382;-56
2022/12/12 08:31:45;;;;;;;;;;;;;;;;;;5075841;28;19925;-56
2022/12/12 08:34:10;;;;;;;;;;;;;;;;;;5081117;28;19975;-58
2022/12/12 08:36:36;;;;;;;;;;;;;;;;;;5081007;28;19932;-56
2022/12/12 08:39:04;;;;;;;;;;;;;;;;;;5075988;28;19960;-56
2022/12/12 08:41:29;;;;;;;;;;;;;;;;;;5080416;28;20286;-55
2022/12/12 08:43:54;;;;;;;;;;;;;;;;;;5082320;28;19931;-55
2022/12/12 08:46:20;;;;;;;;;;;;;;;;;;5072523;28;19938;-57
2022/12/12 08:48:46;;;;;;;;;;;;;;;;;;5079736;28;19932;-57
2022/12/12 08:51:11;;;;;;;;;;;;;;;;;;5082136;28;19929;-56
2022/12/12 08:53:36;;;;;;;;;;;;;;;;;;5077794;28;19928;-56
2022/12/12 08:56:02;;;;;;;;;;;;;;;;;;5081318;28;19928;-59
2022/12/12 08:58:27;;;;;;;;;;;;;;;;;;5078113;28;19975;-57
2022/12/12 09:00:52;;;;;;;;;;;;;;;;;;5073829;28;19935;-56
2022/12/12 09:03:18;;;;;;;;;;;;;;;;;;5077262;28;20366;-56
2022/12/12 09:05:44;;;;;;;;;;;;;;;;;;5078889;28;20006;-58
2022/12/12 09:08:09;;;;;;;;;;;;;;;;;;5073915;28;19928;-56
2022/12/12 09:10:35;;;;;;;;;;;;;;;;;;5074891;28;19936;-57
2022/12/12 09:13:00;;;;;;;;;;;;;;;;;;5079405;28;19928;-55
2022/12/12 09:15:25;;;;;;;;;;;;;;;;;;5079564;28;19973;-57
2022/12/12 09:17:50;;;;;;;;;;;;;;;;;;5079758;28;19967;-56
2022/12/12 09:20:16;;;;;;;;;;;;;;;;;;5076659;28;20374;-58
2022/12/12 09:22:41;;;;;;;;;;;;;;;;;;5081206;28;19928;-55
2022/12/12 09:25:07;;;;;;;;;;;;;;;;;;5077665;28;19928;-56
2022/12/12 09:27:32;;;;;;;;;;;;;;;;;;5082931;28;19959;-57
2022/12/12 09:29:57;;;;;;;;;;;;;;;;;;5083457;28;19928;-58
2022/12/12 09:32:23;;;;;;;;;;;;;;;;;;5086104;28;19924;-59
2022/12/12 09:34:48;;;;;;;;;;;;;;;;;;5083218;28;19955;-56
2022/12/12 09:37:13;;;;;;;;;;;;;;;;;;5082269;28;19924;-55
2022/12/12 09:39:39;;;;;;;;;;;;;;;;;;5074178;28;20374;-57
2022/12/12 09:42:09;;;;;;;;;;;;;;;;;;5078394;28;20284;-56
2022/12/12 09:44:35;;;;;;;;;;;;;;;;;;5082694;28;19920;-57
2022/12/12 09:47:04;;;;;;;;;;;;;;;;;;5080108;28;19931;-58
2022/12/12 09:49:35;;;;;;;;;;;;;;;;;;5077954;28;20014;-58
2022/12/12 09:52:01;;;;;;;;;;;;;;;;;;5082708;28;20438;-55
2022/12/12 09:54:27;;;;;;;;;;;;;;;;;;5073807;28;19937;-57
2022/12/12 09:56:52;;;;;;;;;;;;;;;;;;5084482;28;19920;-57
2022/12/12 09:59:22;;;;;;;;;;;;;;;;;;5081452;28;19921;-56
2022/12/12 10:02:11;;;;;;;;;;;;;;;;;;5087134;28;19928;-57
2022/12/12 10:04:45;;;;;;;;;;;;;;;;;;5070605;28;19939;-57
2022/12/12 10:07:13;;;;;;;;;;;;;;;;;;5075134;28;19928;-56
2022/12/12 10:09:39;;;;;;;;;;;;;;;;;;5075412;28;19924;-56
2022/12/12 10:12:06;;;;;;;;;;;;;;;;;;5072496;28;19931;-56
2022/12/12 10:14:34;;;;;;;;;;;;;;;;;;5072839;28;19931;-56
2022/12/12 10:17:01;;;;;;;;;;;;;;;;;;5067388;28;20023;-56
2022/12/12 10:19:29;;;;;;;;;;;;;;;;;;5079624;28;19940;-58
2022/12/12 10:21:57;;;;;;;;;;;;;;;;;;5074616;28;20379;-59
2022/12/12 10:24:28;;;;;;;;;;;;;;;;;;5074358;28;19924;-58
2022/12/12 10:26:54;;;;;;;;;;;;;;;;;;5078886;28;19924;-56
2022/12/12 10:29:20;;;;;;;;;;;;;;;;;;5082671;28;19931;-58
2022/12/12 10:31:57;;;;;;;;;;;;;;;;;;5076073;28;19932;-54
2022/12/12 10:34:29;;;;;;;;;;;;;;;;;;5070671;28;20003;-56
2022/12/12 10:36:55;;;;;;;;;;;;;;;;;;5079282;28;19928;-59
2022/12/12 10:39:20;;;;;;;;;;;;;;;;;;5077724;28;20295;-56
2022/12/12 10:41:50;;;;;;;;;;;;;;;;;;5080027;28;20035;-56
2022/12/12 10:44:15;;;;;;;;;;;;;;;;;;5079790;28;19934;-59
2022/12/12 10:46:49;;;;;;;;;;;;;;;;;;5075654;28;20289;-58
2022/12/12 10:49:15;;;;;;;;;;;;;;;;;;5074516;28;20026;-55
2022/12/12 10:51:41;;;;;;;;;;;;;;;;;;5084787;28;19935;-58
2022/12/12 10:54:20;;;;;;;;;;;;;;;;;;5081284;28;19928;-57
2022/12/12 10:57:04;;;;;;;;;;;;;;;;;;5081203;28;19934;-57
2022/12/12 10:59:30;;;;;;;;;;;;;;;;;;5081227;28;25967;-60
2022/12/12 11:01:56;;;;;;;;;;;;;;;;;;5079830;28;19928;-58
2022/12/12 11:04:22;;;;;;;;;;;;;;;;;;5076199;28;20446;-59
2022/12/12 11:06:49;;;;;;;;;;;;;;;;;;5078336;28;19936;-56
2022/12/12 11:09:16;;;;;;;;;;;;;;;;;;5078716;28;19928;-57
2022/12/12 11:11:55;;;;;;;;;;;;;;;;;;5077840;28;19920;-59
2022/12/12 11:14:26;;;;;;;;;;;;;;;;;;5076766;28;19932;-59
2022/12/12 11:16:51;;;;;;;;;;;;;;;;;;5081080;28;19970;-57
2022/12/12 11:19:19;;;;;;;;;;;;;;;;;;5079348;28;19971;-57
2022/12/12 11:21:45;;;;;;;;;;;;;;;;;;5075099;28;19935;-57
2022/12/12 11:24:18;;;;;;;;;;;;;;;;;;5076800;28;19951;-57
2022/12/12 11:26:49;;;;;;;;;;;;;;;;;;5074056;28;19939;-58
2022/12/12 11:29:26;;;;;;;;;;;;;;;;;;5071180;28;19928;-58
2022/12/12 11:31:51;;;;;;;;;;;;;;;;;;5076597;28;20298;-60
2022/12/12 11:34:17;;;;;;;;;;;;;;;;;;5077625;28;19928;-60
2022/12/12 11:36:42;;;;;;;;;;;;;;;;;;5097477;28;19959;-59
2022/12/12 11:39:21;;;;;;;;;;;;;;;;;;5079306;28;19927;-57
2022/12/12 11:41:58;;;;;;;;;;;;;;;;;;5081342;28;20368;-58
2022/12/12 11:44:26;;;;;;;;;;;;;;;;;;5080285;28;19924;-58
2022/12/12 11:46:51;;;;;;;;;;;;;;;;;;5083836;28;19935;-59
2022/12/12 11:49:18;;;;;;;;;;;;;;;;;;5086072;28;19931;-59
2022/12/12 11:51:43;;;;;;;;;;;;;;;;;;5085108;28;19924;-58
2022/12/12 11:54:19;;;;;;;;;;;;;;;;;;5085538;28;19939;-59
2022/12/12 11:56:47;;;;;;;;;;;;;;;;;;5081554;28;19924;-59
2022/12/12 11:59:19;;;;;;;;;;;;;;;;;;5073954;28;20637;-58
2022/12/12 12:02:00;;;;;;;;;;;;;;;;;;5070648;28;19928;-57
2022/12/12 12:04:34;;;;;;;;;;;;;;;;;;5074324;28;19924;-59
2022/12/12 12:07:07;;;;;;;;;;;;;;;;;;5071049;28;19974;-58
2022/12/12 12:09:38;;;;;;;;;;;;;;;;;;5071586;28;20450;-59
2022/12/12 12:12:11;;;;;;;;;;;;;;;;;;5073991;28;19930;-58
2022/12/12 12:14:39;;;;;;;;;;;;;;;;;;5078879;28;19927;-58
2022/12/12 12:17:11;;;;;;;;;;;;;;;;;;5077669;28;20389;-55
2022/12/12 12:19:46;;;;;;;;;;;;;;;;;;5081416;28;19932;-57
2022/12/12 12:22:17;;;;;;;;;;;;;;;;;;5077231;28;20023;-58
2022/12/12 12:25:01;;;;;;;;;;;;;;;;;;5073669;28;20335;-58
2022/12/12 12:27:39;;;;;;;;;;;;;;;;;;5072423;28;20039;-59
2022/12/12 12:30:20;;;;;;;;;;;;;;;;;;5072262;28;19928;-58
2022/12/12 12:32:53;;;;;;;;;;;;;;;;;;5074298;28;19924;-58
2022/12/12 12:35:32;;;;;;;;;;;;;;;;;;5076089;28;20018;-57
2022/12/12 12:37:57;;;;;;;;;;;;;;;;;;5077524;28;20026;-57
2022/12/12 12:40:29;;;;;;;;;;;;;;;;;;5075255;28;19928;-59
2022/12/12 12:43:03;;;;;;;;;;;;;;;;;;5079712;28;19939;-58
2022/12/12 12:45:35;;;;;;;;;;;;;;;;;;5079213;28;19931;-56
2022/12/12 12:48:10;;;;;;;;;;;;;;;;;;5077248;28;20315;-56
2022/12/12 12:50:58;;;;;;;;;;;;;;;;;;5062039;28;19962;-56
2022/12/12 12:53:31;;;;;;;;;;;;;;;;;;5078283;28;19977;-58
2022/12/12 12:55:58;;;;;;;;;;;;;;;;;;5074646;28;19988;-57
2022/12/12 12:58:25;;;;;;;;;;;;;;;;;;5076020;28;20378;-57
2022/12/12 13:00:59;;;;;;;;;;;;;;;;;;5075925;28;19974;-58
2022/12/12 13:03:28;;;;;;;;;;;;;;;;;;5080038;28;20274;-57
2022/12/12 13:05:55;;;;;;;;;;;;;;;;;;5079172;28;19973;-57
2022/12/12 13:08:20;;;;;;;;;;;;;;;;;;5078273;28;19921;-56
2022/12/12 13:10:55;;;;;;;;;;;;;;;;;;5079616;28;19935;-58
2022/12/12 13:13:23;;;;;;;;;;;;;;;;;;5076609;28;19932;-58
2022/12/12 13:15:51;;;;;;;;;;;;;;;;;;5079559;28;20479;-58
2022/12/12 13:18:16;;;;;;;;;;;;;;;;;;5077052;28;20047;-58
2022/12/12 13:20:43;;;;;;;;;;;;;;;;;;5072461;28;19924;-57
2022/12/12 13:23:36;;;;;;;;;;;;;;;;;;5076761;28;19929;-58
2022/12/12 13:26:10;;;;;;;;;;;;;;;;;;5081751;28;20019;-57
2022/12/12 13:28:39;;;;;;;;;;;;;;;;;;5081143;28;19924;-55
2022/12/12 13:31:13;;;;;;;;;;;;;;;;;;5083320;28;19934;-58
2022/12/12 13:33:41;;;;;;;;;;;;;;;;;;5076421;28;19932;-57
2022/12/12 13:36:09;;;;;;;;;;;;;;;;;;5073235;28;20263;-58
2022/12/12 13:38:35;;;;;;;;;;;;;;;;;;5078165;28;19931;-57
2022/12/12 13:41:02;;;;;;;;;;;;;;;;;;5073669;28;19924;-61
2022/12/12 13:43:36;;;;;;;;;;;;;;;;;;5078864;28;19985;-60
2022/12/12 13:46:29;;;;;;;;;;;;;;;;;;5087141;28;19985;-59
2022/12/12 13:49:21;;;;;;;;;;;;;;;;;;5085911;28;19924;-59
2022/12/12 13:51:46;;;;;;;;;;;;;;;;;;5062898;28;20402;-59
2022/12/12 13:54:11;;;;;;;;;;;;;;;;;;5089139;28;19936;-60
2022/12/12 13:56:40;;;;;;;;;;;;;;;;;;5088015;28;19981;-60
2022/12/12 13:59:20;;;;;;;;;;;;;;;;;;5082633;28;20353;-59
2022/12/12 14:01:46;;;;;;;;;;;;;;;;;;5088048;28;20439;-60
2022/12/12 14:04:48;;;;;;;;;;;;;;;;;;5088547;28;19950;-60
2022/12/12 14:07:13;;;;;;;;;;;;;;;;;;5055963;28;19936;-60
2022/12/12 14:09:42;;;;;;;;;;;;;;;;;;5081652;28;19928;-61
2022/12/12 14:12:14;;;;;;;;;;;;;;;;;;5088735;28;19924;-61
2022/12/12 14:14:40;;;;;;;;;;;;;;;;;;5085360;28;20596;-60
2022/12/12 14:17:18;;;;;;;;;;;;;;;;;;5082602;28;19928;-60
2022/12/12 14:19:43;;;;;;;;;;;;;;;;;;5084860;28;19928;-60
2022/12/12 14:22:24;;;;;;;;;;;;;;;;;;5084155;28;20007;-61
2022/12/12 14:24:54;;;;;;;;;;;;;;;;;;5081289;28;19935;-61
2022/12/12 14:27:39;;;;;;;;;;;;;;;;;;5084212;28;20030;-61
2022/12/12 14:30:15;;;;;;;;;;;;;;;;;;5082570;28;19924;-61
2022/12/12 14:33:00;;;;;;;;;;;;;;;;;;5079793;28;19935;-61
2022/12/12 14:35:30;;;;;;;;;;;;;;;;;;5064127;28;20718;-61
2022/12/12 14:38:02;;;;;;;;;;;;;;;;;;5083463;28;19939;-61
2022/12/12 14:40:30;;;;;;;;;;;;;;;;;;5081130;28;19955;-61
2022/12/12 14:43:01;;;;;;;;;;;;;;;;;;5075152;28;19933;-60
2022/12/12 14:45:29;;;;;;;;;;;;;;;;;;5072291;28;19932;-61
2022/12/12 14:48:13;;;;;;;;;;;;;;;;;;5076214;28;20303;-61
2022/12/12 14:50:42;;;;;;;;;;;;;;;;;;5082120;28;20352;-61
2022/12/12 14:53:18;;;;;;;;;;;;;;;;;;5084490;28;19935;-61
2022/12/12 14:55:51;;;;;;;;;;;;;;;;;;5084844;28;20313;-61
2022/12/12 14:58:17;;;;;;;;;;;;;;;;;;5083775;28;20338;-61
2022/12/12 15:00:47;;;;;;;;;;;;;;;;;;5084078;28;20378;-61
2022/12/12 15:03:13;;;;;;;;;;;;;;;;;;5083205;28;21421;-60
2022/12/12 15:05:38;;;;;;;;;;;;;;;;;;5084131;28;19924;-60
2022/12/12 15:08:04;;;;;;;;;;;;;;;;;;5083269;28;20382;-61
2022/12/12 15:10:29;;;;;;;;;;;;;;;;;;5083649;28;19928;-60
2022/12/12 15:12:55;;;;;;;;;;;;;;;;;;5071216;28;19928;-60
2022/12/12 15:15:25;;;;;;;;;;;;;;;;;;5081183;28;19932;-60
2022/12/12 15:17:51;;;;;;;;;;;;;;;;;;5080427;28;19920;-61
2022/12/12 15:20:18;;;;;;;;;;;;;;;;;;5082145;28;19920;-61
2022/12/12 15:23:03;;;;;;;;;;;;;;;;;;5076492;28;19935;-62
2022/12/12 15:25:30;;;;;;;;;;;;;;;;;;5077795;28;19925;-61
2022/12/12 15:27:56;;;;;;;;;;;;;;;;;;5069594;28;19968;-59
2022/12/12 15:30:33;;;;;;;;;;;;;;;;;;5079259;28;21830;-59
2022/12/12 15:32:59;;;;;;;;;;;;;;;;;;5082292;28;20511;-56
2022/12/12 15:35:24;;;;;;;;;;;;;;;;;;5080056;28;19924;-61
2022/12/12 15:38:06;;;;;;;;;;;;;;;;;;5077596;28;20837;-60
2022/12/12 15:40:32;;;;;;;;;;;;;;;;;;5075735;28;19928;-53
2022/12/12 15:42:59;;;;;;;;;;;;;;;;;;5086119;28;19952;-54
2022/12/12 15:45:28;;;;;;;;;;;;;;;;;;5080290;28;19932;-51
2022/12/12 15:47:54;;;;;;;;;;;;;;;;;;5085336;28;19955;-52
2022/12/12 15:50:22;;;;;;;;;;;;;;;;;;5087956;28;19924;-52
2022/12/12 15:52:57;;;;;;;;;;;;;;;;;;5079790;28;19936;-59
2022/12/12 15:55:23;;;;;;;;;;;;;;;;;;5082688;28;19990;-60
2022/12/12 15:57:49;;;;;;;;;;;;;;;;;;5082003;28;20022;-59
2022/12/12 16:00:21;;;;;;;;;;;;;;;;;;5080705;28;19934;-59
2022/12/12 16:03:00;;;;;;;;;;;;;;;;;;5083549;28;19970;-60
2022/12/12 16:05:33;;;;;;;;;;;;;;;;;;5084308;28;19928;-60
2022/12/12 16:08:17;;;;;;;;;;;;;;;;;;5082101;28;19932;-60
2022/12/12 16:10:51;;;;;;;;;;;;;;;;;;5084533;28;19928;-53
2022/12/12 16:13:17;;;;;;;;;;;;;;;;;;5077985;28;19975;-55
2022/12/12 16:15:42;;;;;;;;;;;;;;;;;;5071274;28;19975;-55
2022/12/12 16:18:13;;;;;;;;;;;;;;;;;;5072211;28;19924;-56
2022/12/12 16:20:49;;;;;;;;;;;;;;;;;;5077701;28;20305;-63
2022/12/12 16:23:21;;;;;;;;;;;;;;;;;;5072402;28;19924;-64
2022/12/12 16:25:47;;;;;;;;;;;;;;;;;;5072281;28;19939;-64
2022/12/12 16:28:17;;;;;;;;;;;;;;;;;;5074367;28;19924;-64
2022/12/12 16:30:43;;;;;;;;;;;;;;;;;;5073324;28;19928;-64
2022/12/12 16:33:19;;;;;;;;;;;;;;;;;;5072791;28;19928;-64
2022/12/12 16:35:44;;;;;;;;;;;;;;;;;;5075954;28;20344;-64
2022/12/12 16:38:14;;;;;;;;;;;;;;;;;;5076318;28;19928;-63
2022/12/12 16:40:40;;;;;;;;;;;;;;;;;;5073173;28;20011;-62
2022/12/12 16:43:05;;;;;;;;;;;;;;;;;;5071953;28;20268;-61
2022/12/12 16:45:30;;;;;;;;;;;;;;;;;;5070668;28;19931;-62
2022/12/12 16:47:59;;;;;;;;;;;;;;;;;;5071935;28;20023;-62
2022/12/12 16:50:24;;;;;;;;;;;;;;;;;;5071049;28;19966;-62
2022/12/12 16:52:49;;;;;;;;;;;;;;;;;;5073675;28;20611;-62
2022/12/12 16:55:18;;;;;;;;;;;;;;;;;;5078706;28;19928;-62
2022/12/12 16:57:43;;;;;;;;;;;;;;;;;;5071857;28;20007;-62
2022/12/12 17:00:09;;;;;;;;;;;;;;;;;;5071608;28;20494;-62
2022/12/12 17:02:35;;;;;;;;;;;;;;;;;;5076091;28;20263;-62
2022/12/12 17:05:00;;;;;;;;;;;;;;;;;;5072844;28;19939;-62
2022/12/12 17:07:25;;;;;;;;;;;;;;;;;;5075581;28;19932;-62
2022/12/12 17:09:51;;;;;;;;;;;;;;;;;;5072132;28;19931;-62
2022/12/12 17:12:16;;;;;;;;;;;;;;;;;;5075889;28;20022;-63